sensor_id;sensor_type;location;lat;lon;timestamp;P1;durP1;ratioP1;P2;durP2;ratioP2
71836;SDS011;59686;51.716;7.016;2023-06-10T00:01:15;6.57;;;5.88;;
71836;SDS011;59686;51.716;7.016;2023-06-10T00:03:41;6.18;;;5.60;;
71836;SDS011;59686;51.716;7.016;2023-06-10T00:06:08;6.40;;;5.80;;
71836;SDS011;59686;51.716;7.016;2023-06-10T00:11:20;6.20;;;5.70;;
71836;SDS011;59686;51.716;7.016;2023-06-10T00:13:46;10.02;;;6.38;;
71836;SDS011;59686;51.716;7.016;2023-06-10T00:16:12;6.18;;;5.57;;
71836;SDS011;59686;51.716;7.016;2023-06-10T00:18:38;6.78;;;6.18;;
71836;SDS011;59686;51.716;7.016;2023-06-10T00:21:04;6.80;;;6.15;;
71836;SDS011;59686;51.716;7.016;2023-06-10T00:23:30;6.35;;;5.75;;
71836;SDS011;59686;51.716;7.016;2023-06-10T00:26:00;6.65;;;6.05;;
71836;SDS011;59686;51.716;7.016;2023-06-10T00:28:25;6.13;;;5.50;;
71836;SDS011;59686;51.716;7.016;2023-06-10T00:30:51;6.53;;;5.78;;
71836;SDS011;59686;51.716;7.016;2023-06-10T00:33:17;6.35;;;5.78;;
71836;SDS011;59686;51.716;7.016;2023-06-10T00:35:42;6.53;;;5.85;;
71836;SDS011;59686;51.716;7.016;2023-06-10T00:38:19;6.20;;;5.60;;
71836;SDS011;59686;51.716;7.016;2023-06-10T00:40:44;6.35;;;5.80;;
71836;SDS011;59686;51.716;7.016;2023-06-10T00:43:10;6.60;;;6.00;;
71836;SDS011;59686;51.716;7.016;2023-06-10T00:45:36;7.60;;;5.60;;
71836;SDS011;59686;51.716;7.016;2023-06-10T00:48:02;6.18;;;5.68;;
71836;SDS011;59686;51.716;7.016;2023-06-10T00:50:28;6.60;;;5.65;;
71836;SDS011;59686;51.716;7.016;2023-06-10T00:52:56;6.22;;;5.65;;
71836;SDS011;59686;51.716;7.016;2023-06-10T00:55:22;5.72;;;5.25;;
71836;SDS011;59686;51.716;7.016;2023-06-10T00:57:49;6.55;;;5.85;;
71836;SDS011;59686;51.716;7.016;2023-06-10T01:00:16;6.53;;;5.93;;
71836;SDS011;59686;51.716;7.016;2023-06-10T01:02:42;6.03;;;5.53;;
71836;SDS011;59686;51.716;7.016;2023-06-10T01:05:08;6.63;;;5.97;;
71836;SDS011;59686;51.716;7.016;2023-06-10T01:10:38;5.93;;;5.43;;
71836;SDS011;59686;51.716;7.016;2023-06-10T01:13:12;6.57;;;5.90;;
71836;SDS011;59686;51.716;7.016;2023-06-10T01:15:38;6.38;;;5.68;;
71836;SDS011;59686;51.716;7.016;2023-06-10T01:18:05;6.50;;;5.80;;
71836;SDS011;59686;51.716;7.016;2023-06-10T01:20:40;6.30;;;5.70;;
71836;SDS011;59686;51.716;7.016;2023-06-10T01:23:08;7.63;;;6.30;;
71836;SDS011;59686;51.716;7.016;2023-06-10T01:25:37;7.78;;;5.65;;
71836;SDS011;59686;51.716;7.016;2023-06-10T01:31:08;7.32;;;5.63;;
71836;SDS011;59686;51.716;7.016;2023-06-10T01:33:43;6.43;;;5.82;;
71836;SDS011;59686;51.716;7.016;2023-06-10T01:36:12;6.45;;;5.85;;
71836;SDS011;59686;51.716;7.016;2023-06-10T01:38:44;6.80;;;6.10;;
71836;SDS011;59686;51.716;7.016;2023-06-10T01:41:12;6.10;;;5.53;;
71836;SDS011;59686;51.716;7.016;2023-06-10T01:43:40;6.05;;;5.55;;
71836;SDS011;59686;51.716;7.016;2023-06-10T01:46:08;6.40;;;5.90;;
71836;SDS011;59686;51.716;7.016;2023-06-10T01:48:34;6.72;;;5.65;;
71836;SDS011;59686;51.716;7.016;2023-06-10T01:51:00;6.95;;;6.30;;
71836;SDS011;59686;51.716;7.016;2023-06-10T01:53:26;6.22;;;5.63;;
71836;SDS011;59686;51.716;7.016;2023-06-10T01:55:52;6.18;;;5.57;;
71836;SDS011;59686;51.716;7.016;2023-06-10T01:58:17;6.28;;;5.70;;
71836;SDS011;59686;51.716;7.016;2023-06-10T02:00:43;6.82;;;5.82;;
71836;SDS011;59686;51.716;7.016;2023-06-10T02:03:12;6.07;;;5.47;;
71836;SDS011;59686;51.716;7.016;2023-06-10T02:05:37;6.68;;;5.85;;
71836;SDS011;59686;51.716;7.016;2023-06-10T02:08:03;6.50;;;5.95;;
71836;SDS011;59686;51.716;7.016;2023-06-10T02:10:29;5.63;;;5.22;;
71836;SDS011;59686;51.716;7.016;2023-06-10T02:12:55;6.60;;;6.00;;
71836;SDS011;59686;51.716;7.016;2023-06-10T02:15:21;6.85;;;5.40;;
71836;SDS011;59686;51.716;7.016;2023-06-10T02:17:46;6.50;;;5.90;;
71836;SDS011;59686;51.716;7.016;2023-06-10T02:20:14;6.43;;;5.30;;
71836;SDS011;59686;51.716;7.016;2023-06-10T02:22:39;8.23;;;5.63;;
71836;SDS011;59686;51.716;7.016;2023-06-10T02:25:05;6.20;;;5.60;;
71836;SDS011;59686;51.716;7.016;2023-06-10T02:27:31;6.10;;;5.50;;
71836;SDS011;59686;51.716;7.016;2023-06-10T02:29:57;6.47;;;5.80;;
71836;SDS011;59686;51.716;7.016;2023-06-10T02:32:23;6.03;;;5.43;;
71836;SDS011;59686;51.716;7.016;2023-06-10T02:34:49;7.68;;;5.30;;
71836;SDS011;59686;51.716;7.016;2023-06-10T02:37:15;5.70;;;5.20;;
71836;SDS011;59686;51.716;7.016;2023-06-10T02:39:41;6.13;;;5.57;;
71836;SDS011;59686;51.716;7.016;2023-06-10T02:42:07;6.40;;;5.65;;
71836;SDS011;59686;51.716;7.016;2023-06-10T02:44:33;6.25;;;5.65;;
71836;SDS011;59686;51.716;7.016;2023-06-10T02:46:58;5.90;;;5.40;;
71836;SDS011;59686;51.716;7.016;2023-06-10T02:49:29;6.00;;;5.45;;
71836;SDS011;59686;51.716;7.016;2023-06-10T02:51:54;5.80;;;5.30;;
71836;SDS011;59686;51.716;7.016;2023-06-10T02:54:22;8.35;;;5.97;;
71836;SDS011;59686;51.716;7.016;2023-06-10T02:56:48;6.18;;;5.57;;
71836;SDS011;59686;51.716;7.016;2023-06-10T02:59:14;6.97;;;5.88;;
71836;SDS011;59686;51.716;7.016;2023-06-10T03:01:40;6.22;;;5.40;;
71836;SDS011;59686;51.716;7.016;2023-06-10T03:06:40;6.00;;;5.40;;
71836;SDS011;59686;51.716;7.016;2023-06-10T03:09:06;6.13;;;5.53;;
71836;SDS011;59686;51.716;7.016;2023-06-10T03:11:34;7.13;;;5.47;;
71836;SDS011;59686;51.716;7.016;2023-06-10T03:14:00;5.78;;;5.18;;
71836;SDS011;59686;51.716;7.016;2023-06-10T03:16:26;6.57;;;5.55;;
71836;SDS011;59686;51.716;7.016;2023-06-10T03:18:52;5.63;;;5.13;;
71836;SDS011;59686;51.716;7.016;2023-06-10T03:21:18;6.53;;;5.38;;
71836;SDS011;59686;51.716;7.016;2023-06-10T03:23:45;5.53;;;5.03;;
71836;SDS011;59686;51.716;7.016;2023-06-10T03:26:11;6.43;;;5.22;;
71836;SDS011;59686;51.716;7.016;2023-06-10T03:28:39;5.93;;;5.20;;
71836;SDS011;59686;51.716;7.016;2023-06-10T03:31:05;5.82;;;5.22;;
71836;SDS011;59686;51.716;7.016;2023-06-10T03:33:31;6.10;;;5.50;;
71836;SDS011;59686;51.716;7.016;2023-06-10T03:35:57;5.65;;;5.13;;
71836;SDS011;59686;51.716;7.016;2023-06-10T03:38:23;7.45;;;5.60;;
71836;SDS011;59686;51.716;7.016;2023-06-10T03:40:48;5.43;;;4.93;;
71836;SDS011;59686;51.716;7.016;2023-06-10T03:43:31;5.85;;;5.25;;
71836;SDS011;59686;51.716;7.016;2023-06-10T03:45:57;6.05;;;5.20;;
71836;SDS011;59686;51.716;7.016;2023-06-10T03:48:23;5.82;;;5.22;;
71836;SDS011;59686;51.716;7.016;2023-06-10T03:50:49;5.40;;;4.90;;
71836;SDS011;59686;51.716;7.016;2023-06-10T03:53:16;4.97;;;4.15;;
71836;SDS011;59686;51.716;7.016;2023-06-10T03:55:42;5.13;;;4.63;;
71836;SDS011;59686;51.716;7.016;2023-06-10T03:58:07;5.57;;;4.97;;
71836;SDS011;59686;51.716;7.016;2023-06-10T04:00:33;5.88;;;5.18;;
71836;SDS011;59686;51.716;7.016;2023-06-10T04:03:06;6.55;;;5.20;;
71836;SDS011;59686;51.716;7.016;2023-06-10T04:05:39;5.68;;;5.07;;
71836;SDS011;59686;51.716;7.016;2023-06-10T04:08:22;5.93;;;5.10;;
71836;SDS011;59686;51.716;7.016;2023-06-10T04:10:48;6.10;;;4.85;;
71836;SDS011;59686;51.716;7.016;2023-06-10T04:13:14;6.10;;;5.20;;
71836;SDS011;59686;51.716;7.016;2023-06-10T04:15:40;5.72;;;5.07;;
71836;SDS011;59686;51.716;7.016;2023-06-10T04:18:05;5.32;;;4.78;;
71836;SDS011;59686;51.716;7.016;2023-06-10T04:20:31;5.25;;;4.30;;
71836;SDS011;59686;51.716;7.016;2023-06-10T04:22:59;6.68;;;4.80;;
71836;SDS011;59686;51.716;7.016;2023-06-10T04:25:26;7.03;;;4.85;;
71836;SDS011;59686;51.716;7.016;2023-06-10T04:27:52;6.43;;;4.90;;
71836;SDS011;59686;51.716;7.016;2023-06-10T04:30:27;5.22;;;4.72;;
71836;SDS011;59686;51.716;7.016;2023-06-10T04:32:52;5.57;;;4.95;;
71836;SDS011;59686;51.716;7.016;2023-06-10T04:35:18;5.55;;;4.95;;
71836;SDS011;59686;51.716;7.016;2023-06-10T04:37:43;6.10;;;5.07;;
71836;SDS011;59686;51.716;7.016;2023-06-10T04:40:09;5.70;;;5.07;;
71836;SDS011;59686;51.716;7.016;2023-06-10T04:42:35;6.45;;;4.75;;
71836;SDS011;59686;51.716;7.016;2023-06-10T04:45:02;4.95;;;4.45;;
71836;SDS011;59686;51.716;7.016;2023-06-10T04:47:29;6.07;;;5.10;;
71836;SDS011;59686;51.716;7.016;2023-06-10T04:49:58;5.80;;;4.78;;
71836;SDS011;59686;51.716;7.016;2023-06-10T04:52:24;5.05;;;4.55;;
71836;SDS011;59686;51.716;7.016;2023-06-10T04:54:50;7.38;;;4.85;;
71836;SDS011;59686;51.716;7.016;2023-06-10T04:57:16;6.85;;;4.60;;
71836;SDS011;59686;51.716;7.016;2023-06-10T04:59:42;5.78;;;4.30;;
71836;SDS011;59686;51.716;7.016;2023-06-10T05:02:07;5.30;;;4.80;;
71836;SDS011;59686;51.716;7.016;2023-06-10T05:04:33;7.03;;;4.97;;
71836;SDS011;59686;51.716;7.016;2023-06-10T05:06:59;5.85;;;4.50;;
71836;SDS011;59686;51.716;7.016;2023-06-10T05:09:24;5.80;;;4.75;;
71836;SDS011;59686;51.716;7.016;2023-06-10T05:14:23;5.93;;;4.93;;
71836;SDS011;59686;51.716;7.016;2023-06-10T05:16:49;5.28;;;4.72;;
71836;SDS011;59686;51.716;7.016;2023-06-10T05:19:15;6.22;;;4.50;;
71836;SDS011;59686;51.716;7.016;2023-06-10T05:21:44;6.20;;;4.88;;
71836;SDS011;59686;51.716;7.016;2023-06-10T05:24:10;6.28;;;4.53;;
71836;SDS011;59686;51.716;7.016;2023-06-10T05:26:42;4.97;;;4.47;;
71836;SDS011;59686;51.716;7.016;2023-06-10T05:29:08;5.88;;;4.57;;
71836;SDS011;59686;51.716;7.016;2023-06-10T05:34:34;4.68;;;4.25;;
71836;SDS011;59686;51.716;7.016;2023-06-10T05:37:00;5.45;;;4.25;;
71836;SDS011;59686;51.716;7.016;2023-06-10T05:39:25;5.20;;;4.70;;
71836;SDS011;59686;51.716;7.016;2023-06-10T05:41:51;8.90;;;4.25;;
71836;SDS011;59686;51.716;7.016;2023-06-10T05:44:16;5.32;;;4.43;;
71836;SDS011;59686;51.716;7.016;2023-06-10T05:46:43;4.93;;;4.28;;
71836;SDS011;59686;51.716;7.016;2023-06-10T05:49:09;4.78;;;4.32;;
71836;SDS011;59686;51.716;7.016;2023-06-10T05:51:34;4.90;;;4.40;;
71836;SDS011;59686;51.716;7.016;2023-06-10T05:54:06;5.55;;;4.70;;
71836;SDS011;59686;51.716;7.016;2023-06-10T05:56:31;6.22;;;4.72;;
71836;SDS011;59686;51.716;7.016;2023-06-10T05:58:57;6.25;;;5.00;;
71836;SDS011;59686;51.716;7.016;2023-06-10T06:01:22;5.45;;;4.47;;
71836;SDS011;59686;51.716;7.016;2023-06-10T06:03:48;6.20;;;4.60;;
71836;SDS011;59686;51.716;7.016;2023-06-10T06:06:14;8.02;;;4.50;;
71836;SDS011;59686;51.716;7.016;2023-06-10T06:08:39;7.60;;;4.93;;
71836;SDS011;59686;51.716;7.016;2023-06-10T06:11:05;5.30;;;4.78;;
71836;SDS011;59686;51.716;7.016;2023-06-10T06:13:31;6.65;;;5.03;;
71836;SDS011;59686;51.716;7.016;2023-06-10T06:15:56;5.22;;;4.72;;
71836;SDS011;59686;51.716;7.016;2023-06-10T06:18:22;5.25;;;4.75;;
71836;SDS011;59686;51.716;7.016;2023-06-10T06:20:48;5.07;;;4.40;;
71836;SDS011;59686;51.716;7.016;2023-06-10T06:23:13;5.30;;;4.40;;
71836;SDS011;59686;51.716;7.016;2023-06-10T06:28:12;5.70;;;4.13;;
71836;SDS011;59686;51.716;7.016;2023-06-10T06:30:38;5.35;;;4.50;;
71836;SDS011;59686;51.716;7.016;2023-06-10T06:33:03;6.03;;;4.90;;
71836;SDS011;59686;51.716;7.016;2023-06-10T06:35:32;5.20;;;4.70;;
71836;SDS011;59686;51.716;7.016;2023-06-10T06:37:59;6.45;;;4.80;;
71836;SDS011;59686;51.716;7.016;2023-06-10T06:40:24;8.93;;;4.75;;
71836;SDS011;59686;51.716;7.016;2023-06-10T06:42:50;5.43;;;4.32;;
71836;SDS011;59686;51.716;7.016;2023-06-10T06:45:27;6.38;;;4.43;;
71836;SDS011;59686;51.716;7.016;2023-06-10T06:47:53;5.38;;;4.20;;
71836;SDS011;59686;51.716;7.016;2023-06-10T06:50:18;7.75;;;4.30;;
71836;SDS011;59686;51.716;7.016;2023-06-10T06:55:42;5.13;;;4.28;;
71836;SDS011;59686;51.716;7.016;2023-06-10T06:58:08;5.82;;;4.47;;
71836;SDS011;59686;51.716;7.016;2023-06-10T07:00:33;6.22;;;4.95;;
71836;SDS011;59686;51.716;7.016;2023-06-10T07:02:59;6.85;;;4.47;;
71836;SDS011;59686;51.716;7.016;2023-06-10T07:05:25;5.55;;;4.20;;
71836;SDS011;59686;51.716;7.016;2023-06-10T07:10:38;4.93;;;4.38;;
71836;SDS011;59686;51.716;7.016;2023-06-10T07:13:03;5.07;;;4.03;;
71836;SDS011;59686;51.716;7.016;2023-06-10T07:15:30;5.15;;;4.60;;
71836;SDS011;59686;51.716;7.016;2023-06-10T07:17:55;5.35;;;4.18;;
71836;SDS011;59686;51.716;7.016;2023-06-10T07:20:21;5.68;;;4.10;;
71836;SDS011;59686;51.716;7.016;2023-06-10T07:22:47;5.95;;;4.30;;
71836;SDS011;59686;51.716;7.016;2023-06-10T07:25:12;5.35;;;4.85;;
71836;SDS011;59686;51.716;7.016;2023-06-10T07:27:38;5.60;;;4.80;;
71836;SDS011;59686;51.716;7.016;2023-06-10T07:30:06;5.53;;;3.92;;
71836;SDS011;59686;51.716;7.016;2023-06-10T07:32:33;4.60;;;4.20;;
71836;SDS011;59686;51.716;7.016;2023-06-10T07:34:59;4.45;;;4.03;;
71836;SDS011;59686;51.716;7.016;2023-06-10T07:37:24;4.13;;;3.72;;
71836;SDS011;59686;51.716;7.016;2023-06-10T07:39:50;5.53;;;4.30;;
71836;SDS011;59686;51.716;7.016;2023-06-10T07:42:16;5.35;;;4.50;;
71836;SDS011;59686;51.716;7.016;2023-06-10T07:44:42;4.00;;;3.60;;
71836;SDS011;59686;51.716;7.016;2023-06-10T07:47:14;5.88;;;4.00;;
71836;SDS011;59686;51.716;7.016;2023-06-10T07:49:40;4.78;;;4.25;;
71836;SDS011;59686;51.716;7.016;2023-06-10T07:52:07;6.50;;;4.10;;
71836;SDS011;59686;51.716;7.016;2023-06-10T07:54:32;11.55;;;4.45;;
71836;SDS011;59686;51.716;7.016;2023-06-10T07:56:58;8.00;;;4.40;;
71836;SDS011;59686;51.716;7.016;2023-06-10T07:59:24;6.25;;;4.75;;
71836;SDS011;59686;51.716;7.016;2023-06-10T08:01:51;5.78;;;4.35;;
71836;SDS011;59686;51.716;7.016;2023-06-10T08:04:17;5.93;;;4.28;;
71836;SDS011;59686;51.716;7.016;2023-06-10T08:06:43;7.53;;;4.63;;
71836;SDS011;59686;51.716;7.016;2023-06-10T08:09:09;7.60;;;4.43;;
71836;SDS011;59686;51.716;7.016;2023-06-10T08:11:34;5.55;;;4.38;;
71836;SDS011;59686;51.716;7.016;2023-06-10T08:14:00;7.57;;;4.13;;
71836;SDS011;59686;51.716;7.016;2023-06-10T08:16:26;6.82;;;4.50;;
71836;SDS011;59686;51.716;7.016;2023-06-10T08:18:51;5.05;;;4.10;;
71836;SDS011;59686;51.716;7.016;2023-06-10T08:21:18;4.88;;;4.38;;
71836;SDS011;59686;51.716;7.016;2023-06-10T08:23:44;4.82;;;4.38;;
71836;SDS011;59686;51.716;7.016;2023-06-10T08:26:10;5.45;;;4.13;;
71836;SDS011;59686;51.716;7.016;2023-06-10T08:28:35;7.00;;;4.80;;
71836;SDS011;59686;51.716;7.016;2023-06-10T08:31:01;7.40;;;4.30;;
71836;SDS011;59686;51.716;7.016;2023-06-10T08:33:27;5.40;;;4.55;;
71836;SDS011;59686;51.716;7.016;2023-06-10T08:36:03;5.75;;;4.93;;
71836;SDS011;59686;51.716;7.016;2023-06-10T08:38:28;5.00;;;4.38;;
71836;SDS011;59686;51.716;7.016;2023-06-10T08:40:56;6.72;;;4.68;;
71836;SDS011;59686;51.716;7.016;2023-06-10T08:43:39;5.68;;;4.35;;
71836;SDS011;59686;51.716;7.016;2023-06-10T08:46:09;4.93;;;4.43;;
71836;SDS011;59686;51.716;7.016;2023-06-10T08:48:37;5.53;;;4.90;;
71836;SDS011;59686;51.716;7.016;2023-06-10T08:51:06;6.72;;;4.85;;
71836;SDS011;59686;51.716;7.016;2023-06-10T08:53:34;4.97;;;4.47;;
71836;SDS011;59686;51.716;7.016;2023-06-10T08:56:03;7.88;;;4.75;;
71836;SDS011;59686;51.716;7.016;2023-06-10T08:58:31;5.18;;;4.68;;
71836;SDS011;59686;51.716;7.016;2023-06-10T09:00:58;5.63;;;4.20;;
71836;SDS011;59686;51.716;7.016;2023-06-10T09:03:24;4.90;;;4.32;;
71836;SDS011;59686;51.716;7.016;2023-06-10T09:05:54;5.57;;;4.65;;
71836;SDS011;59686;51.716;7.016;2023-06-10T09:08:22;7.10;;;4.40;;
71836;SDS011;59686;51.716;7.016;2023-06-10T09:10:53;6.00;;;4.75;;
71836;SDS011;59686;51.716;7.016;2023-06-10T09:13:19;5.20;;;4.47;;
71836;SDS011;59686;51.716;7.016;2023-06-10T09:15:45;7.15;;;4.80;;
71836;SDS011;59686;51.716;7.016;2023-06-10T09:18:14;6.70;;;5.00;;
71836;SDS011;59686;51.716;7.016;2023-06-10T09:20:41;5.20;;;4.70;;
71836;SDS011;59686;51.716;7.016;2023-06-10T09:23:08;5.03;;;4.53;;
71836;SDS011;59686;51.716;7.016;2023-06-10T09:25:35;5.97;;;4.45;;
71836;SDS011;59686;51.716;7.016;2023-06-10T09:28:02;6.78;;;5.20;;
71836;SDS011;59686;51.716;7.016;2023-06-10T09:30:29;5.88;;;4.85;;
71836;SDS011;59686;51.716;7.016;2023-06-10T09:32:56;5.30;;;4.75;;
71836;SDS011;59686;51.716;7.016;2023-06-10T09:35:27;6.40;;;4.90;;
71836;SDS011;59686;51.716;7.016;2023-06-10T09:37:56;6.60;;;4.68;;
71836;SDS011;59686;51.716;7.016;2023-06-10T09:40:24;6.25;;;4.75;;
71836;SDS011;59686;51.716;7.016;2023-06-10T09:42:54;5.30;;;4.68;;
71836;SDS011;59686;51.716;7.016;2023-06-10T09:45:23;5.80;;;4.75;;
71836;SDS011;59686;51.716;7.016;2023-06-10T09:47:53;5.00;;;4.50;;
71836;SDS011;59686;51.716;7.016;2023-06-10T09:50:19;5.13;;;4.63;;
71836;SDS011;59686;51.716;7.016;2023-06-10T09:52:45;5.13;;;4.47;;
71836;SDS011;59686;51.716;7.016;2023-06-10T09:55:12;7.97;;;4.68;;
71836;SDS011;59686;51.716;7.016;2023-06-10T09:57:37;4.70;;;4.28;;
71836;SDS011;59686;51.716;7.016;2023-06-10T10:00:07;5.18;;;4.38;;
71836;SDS011;59686;51.716;7.016;2023-06-10T10:02:50;7.35;;;4.72;;
71836;SDS011;59686;51.716;7.016;2023-06-10T10:05:19;5.72;;;4.80;;
71836;SDS011;59686;51.716;7.016;2023-06-10T10:07:47;5.25;;;4.40;;
71836;SDS011;59686;51.716;7.016;2023-06-10T10:10:14;7.05;;;4.80;;
71836;SDS011;59686;51.716;7.016;2023-06-10T10:12:41;6.85;;;4.65;;
71836;SDS011;59686;51.716;7.016;2023-06-10T10:15:08;7.78;;;4.78;;
71836;SDS011;59686;51.716;7.016;2023-06-10T10:20:14;5.05;;;4.55;;
71836;SDS011;59686;51.716;7.016;2023-06-10T10:22:43;7.65;;;4.80;;
71836;SDS011;59686;51.716;7.016;2023-06-10T10:25:12;5.75;;;4.38;;
71836;SDS011;59686;51.716;7.016;2023-06-10T10:27:48;5.95;;;4.32;;
71836;SDS011;59686;51.716;7.016;2023-06-10T10:30:17;7.03;;;4.55;;
71836;SDS011;59686;51.716;7.016;2023-06-10T10:32:52;5.22;;;4.72;;
71836;SDS011;59686;51.716;7.016;2023-06-10T10:35:26;5.13;;;4.63;;
71836;SDS011;59686;51.716;7.016;2023-06-10T10:37:53;6.10;;;4.78;;
71836;SDS011;59686;51.716;7.016;2023-06-10T10:40:23;6.78;;;5.05;;
71836;SDS011;59686;51.716;7.016;2023-06-10T10:42:50;5.30;;;4.60;;
71836;SDS011;59686;51.716;7.016;2023-06-10T10:45:17;4.95;;;4.47;;
71836;SDS011;59686;51.716;7.016;2023-06-10T10:47:45;7.97;;;4.72;;
71836;SDS011;59686;51.716;7.016;2023-06-10T10:50:15;5.55;;;4.32;;
71836;SDS011;59686;51.716;7.016;2023-06-10T10:52:52;5.15;;;4.65;;
71836;SDS011;59686;51.716;7.016;2023-06-10T10:55:27;6.68;;;4.65;;
71836;SDS011;59686;51.716;7.016;2023-06-10T11:00:32;5.50;;;4.90;;
71836;SDS011;59686;51.716;7.016;2023-06-10T11:05:41;6.18;;;4.78;;
71836;SDS011;59686;51.716;7.016;2023-06-10T11:08:10;5.75;;;4.65;;
71836;SDS011;59686;51.716;7.016;2023-06-10T11:13:19;5.55;;;4.70;;
71836;SDS011;59686;51.716;7.016;2023-06-10T11:15:46;5.40;;;4.90;;
71836;SDS011;59686;51.716;7.016;2023-06-10T11:21:01;5.65;;;5.05;;
71836;SDS011;59686;51.716;7.016;2023-06-10T11:31:19;7.05;;;4.78;;
71836;SDS011;59686;51.716;7.016;2023-06-10T11:33:59;5.40;;;4.90;;
71836;SDS011;59686;51.716;7.016;2023-06-10T11:36:27;5.82;;;4.65;;
71836;SDS011;59686;51.716;7.016;2023-06-10T11:38:58;5.97;;;5.05;;
71836;SDS011;59686;51.716;7.016;2023-06-10T11:41:25;7.18;;;5.43;;
71836;SDS011;59686;51.716;7.016;2023-06-10T11:43:52;5.82;;;5.10;;
71836;SDS011;59686;51.716;7.016;2023-06-10T11:46:19;6.25;;;5.20;;
71836;SDS011;59686;51.716;7.016;2023-06-10T11:48:51;6.28;;;5.25;;
71836;SDS011;59686;51.716;7.016;2023-06-10T11:51:18;8.57;;;4.63;;
71836;SDS011;59686;51.716;7.016;2023-06-10T11:53:44;7.00;;;5.00;;
71836;SDS011;59686;51.716;7.016;2023-06-10T11:56:11;5.72;;;5.15;;
71836;SDS011;59686;51.716;7.016;2023-06-10T11:58:37;5.55;;;5.00;;
71836;SDS011;59686;51.716;7.016;2023-06-10T12:01:09;6.22;;;5.47;;
71836;SDS011;59686;51.716;7.016;2023-06-10T12:03:35;6.03;;;5.40;;
71836;SDS011;59686;51.716;7.016;2023-06-10T12:06:06;6.88;;;4.85;;
71836;SDS011;59686;51.716;7.016;2023-06-10T12:08:32;6.07;;;5.47;;
71836;SDS011;59686;51.716;7.016;2023-06-10T12:10:59;5.80;;;5.00;;
71836;SDS011;59686;51.716;7.016;2023-06-10T12:13:28;5.35;;;4.72;;
71836;SDS011;59686;51.716;7.016;2023-06-10T12:15:54;6.82;;;5.20;;
71836;SDS011;59686;51.716;7.016;2023-06-10T12:18:21;6.70;;;5.50;;
71836;SDS011;59686;51.716;7.016;2023-06-10T12:20:50;6.10;;;5.05;;
71836;SDS011;59686;51.716;7.016;2023-06-10T12:23:16;6.72;;;5.15;;
71836;SDS011;59686;51.716;7.016;2023-06-10T12:25:55;5.53;;;4.90;;
71836;SDS011;59686;51.716;7.016;2023-06-10T12:28:24;5.68;;;5.13;;
71836;SDS011;59686;51.716;7.016;2023-06-10T12:30:51;6.20;;;5.60;;
71836;SDS011;59686;51.716;7.016;2023-06-10T12:33:20;5.80;;;5.07;;
71836;SDS011;59686;51.716;7.016;2023-06-10T12:35:52;8.43;;;5.63;;
71836;SDS011;59686;51.716;7.016;2023-06-10T12:38:22;5.63;;;4.70;;
71836;SDS011;59686;51.716;7.016;2023-06-10T12:43:43;6.03;;;5.35;;
71836;SDS011;59686;51.716;7.016;2023-06-10T12:46:11;6.22;;;5.47;;
71836;SDS011;59686;51.716;7.016;2023-06-10T12:48:43;6.80;;;5.32;;
71836;SDS011;59686;51.716;7.016;2023-06-10T12:51:17;6.93;;;5.50;;
71836;SDS011;59686;51.716;7.016;2023-06-10T12:53:43;6.93;;;5.47;;
71836;SDS011;59686;51.716;7.016;2023-06-10T12:56:09;6.15;;;5.03;;
71836;SDS011;59686;51.716;7.016;2023-06-10T12:58:35;5.30;;;4.82;;
71836;SDS011;59686;51.716;7.016;2023-06-10T13:01:12;5.90;;;5.30;;
71836;SDS011;59686;51.716;7.016;2023-06-10T13:03:37;5.80;;;5.10;;
71836;SDS011;59686;51.716;7.016;2023-06-10T13:06:04;5.90;;;5.30;;
71836;SDS011;59686;51.716;7.016;2023-06-10T13:08:30;6.03;;;4.95;;
71836;SDS011;59686;51.716;7.016;2023-06-10T13:10:56;6.47;;;5.68;;
71836;SDS011;59686;51.716;7.016;2023-06-10T13:13:22;7.10;;;5.25;;
71836;SDS011;59686;51.716;7.016;2023-06-10T13:15:47;6.88;;;5.20;;
71836;SDS011;59686;51.716;7.016;2023-06-10T13:18:15;6.80;;;5.40;;
71836;SDS011;59686;51.716;7.016;2023-06-10T13:20:43;7.13;;;5.60;;
71836;SDS011;59686;51.716;7.016;2023-06-10T13:23:08;5.50;;;5.00;;
71836;SDS011;59686;51.716;7.016;2023-06-10T13:25:40;6.30;;;5.10;;
71836;SDS011;59686;51.716;7.016;2023-06-10T13:28:09;7.78;;;5.20;;
71836;SDS011;59686;51.716;7.016;2023-06-10T13:30:35;6.53;;;5.38;;
71836;SDS011;59686;51.716;7.016;2023-06-10T13:33:00;5.82;;;5.28;;
71836;SDS011;59686;51.716;7.016;2023-06-10T13:37:57;9.48;;;5.40;;
71836;SDS011;59686;51.716;7.016;2023-06-10T13:40:22;6.28;;;5.68;;
71836;SDS011;59686;51.716;7.016;2023-06-10T13:42:48;6.78;;;5.25;;
71836;SDS011;59686;51.716;7.016;2023-06-10T13:45:15;6.47;;;5.10;;
71836;SDS011;59686;51.716;7.016;2023-06-10T13:47:42;6.57;;;5.70;;
71836;SDS011;59686;51.716;7.016;2023-06-10T13:50:07;5.93;;;5.28;;
71836;SDS011;59686;51.716;7.016;2023-06-10T13:52:33;7.75;;;5.35;;
71836;SDS011;59686;51.716;7.016;2023-06-10T13:54:59;7.28;;;5.55;;
71836;SDS011;59686;51.716;7.016;2023-06-10T13:57:25;6.45;;;5.45;;
71836;SDS011;59686;51.716;7.016;2023-06-10T13:59:50;6.25;;;5.65;;
71836;SDS011;59686;51.716;7.016;2023-06-10T14:02:16;9.18;;;6.05;;
71836;SDS011;59686;51.716;7.016;2023-06-10T14:04:43;10.10;;;5.47;;
71836;SDS011;59686;51.716;7.016;2023-06-10T14:07:09;6.82;;;5.53;;
71836;SDS011;59686;51.716;7.016;2023-06-10T14:09:34;9.43;;;5.47;;
71836;SDS011;59686;51.716;7.016;2023-06-10T14:12:00;7.57;;;5.97;;
71836;SDS011;59686;51.716;7.016;2023-06-10T14:14:28;9.10;;;5.45;;
71836;SDS011;59686;51.716;7.016;2023-06-10T14:16:54;7.30;;;5.68;;
71836;SDS011;59686;51.716;7.016;2023-06-10T14:19:20;6.32;;;5.68;;
71836;SDS011;59686;51.716;7.016;2023-06-10T14:21:45;11.55;;;6.20;;
71836;SDS011;59686;51.716;7.016;2023-06-10T14:24:12;9.55;;;5.93;;
71836;SDS011;59686;51.716;7.016;2023-06-10T14:26:37;6.80;;;5.70;;
71836;SDS011;59686;51.716;7.016;2023-06-10T14:29:03;6.45;;;5.60;;
71836;SDS011;59686;51.716;7.016;2023-06-10T14:31:29;10.88;;;5.65;;
71836;SDS011;59686;51.716;7.016;2023-06-10T14:33:54;6.90;;;5.70;;
71836;SDS011;59686;51.716;7.016;2023-06-10T14:36:20;8.05;;;5.78;;
71836;SDS011;59686;51.716;7.016;2023-06-10T14:38:45;7.53;;;5.78;;
71836;SDS011;59686;51.716;7.016;2023-06-10T14:41:11;6.32;;;5.63;;
71836;SDS011;59686;51.716;7.016;2023-06-10T14:43:37;6.57;;;5.35;;
71836;SDS011;59686;51.716;7.016;2023-06-10T14:46:03;6.57;;;5.75;;
71836;SDS011;59686;51.716;7.016;2023-06-10T14:48:28;7.63;;;6.00;;
71836;SDS011;59686;51.716;7.016;2023-06-10T14:50:54;6.35;;;5.70;;
71836;SDS011;59686;51.716;7.016;2023-06-10T14:53:21;8.40;;;5.32;;
71836;SDS011;59686;51.716;7.016;2023-06-10T14:55:47;10.50;;;6.05;;
71836;SDS011;59686;51.716;7.016;2023-06-10T14:58:12;6.03;;;5.30;;
71836;SDS011;59686;51.716;7.016;2023-06-10T15:00:41;8.63;;;5.60;;
71836;SDS011;59686;51.716;7.016;2023-06-10T15:03:07;8.55;;;5.53;;
71836;SDS011;59686;51.716;7.016;2023-06-10T15:05:32;6.32;;;5.72;;
71836;SDS011;59686;51.716;7.016;2023-06-10T15:07:59;7.40;;;5.57;;
71836;SDS011;59686;51.716;7.016;2023-06-10T15:10:25;7.38;;;6.03;;
71836;SDS011;59686;51.716;7.016;2023-06-10T15:12:51;7.57;;;5.45;;
71836;SDS011;59686;51.716;7.016;2023-06-10T15:15:21;11.57;;;6.32;;
71836;SDS011;59686;51.716;7.016;2023-06-10T15:17:50;6.10;;;5.45;;
71836;SDS011;59686;51.716;7.016;2023-06-10T15:20:16;6.28;;;5.65;;
71836;SDS011;59686;51.716;7.016;2023-06-10T15:22:42;10.52;;;6.05;;
71836;SDS011;59686;51.716;7.016;2023-06-10T15:25:08;8.32;;;5.75;;
71836;SDS011;59686;51.716;7.016;2023-06-10T15:27:33;11.70;;;5.95;;
71836;SDS011;59686;51.716;7.016;2023-06-10T15:29:59;7.15;;;5.55;;
71836;SDS011;59686;51.716;7.016;2023-06-10T15:32:25;8.68;;;5.40;;
71836;SDS011;59686;51.716;7.016;2023-06-10T15:34:50;7.25;;;5.88;;
71836;SDS011;59686;51.716;7.016;2023-06-10T15:37:18;6.60;;;5.93;;
71836;SDS011;59686;51.716;7.016;2023-06-10T15:39:44;9.27;;;6.07;;